Time;durP1;ratioP1;P1;durP2;ratioP2;P2;SDS_P1;SDS_P2;PMS_P1;PMS_P2;Temp;Humidity;BMP_temperature;BMP_pressure;BME280_temperature;BME280_humidity;BME280_pressure;Samples;Min_cycle;Max_cycle;Signal;HPM_P1;HPM_P2
2022/09/17 00:01:21;;;;;;;9.77;1.50;;;;;;;11.06;72.37;100256.91;4953679;29;20054;-80
2022/09/17 00:04:25;;;;;;;5.68;1.75;;;;;;;11.04;72.10;100266.63;4941261;29;20573;-81
2022/09/17 00:07:28;;;;;;;7.65;1.92;;;;;;;11.29;72.19;100280.88;4953193;29;20455;-81
2022/09/17 00:10:40;;;;;;;8.10;1.40;;;;;;;11.02;73.56;100267.66;4952313;29;20054;-81
2022/09/17 00:13:50;;;;;;;9.35;2.20;;;;;;;11.18;73.98;100265.81;4953172;29;20086;-80
2022/09/17 00:16:54;;;;;;;8.02;2.10;;;;;;;11.22;74.18;100263.88;4951979;29;20521;-81
2022/09/17 00:19:59;;;;;;;8.13;1.80;;;;;;;11.05;74.59;100270.94;4953281;29;20057;-80
2022/09/17 00:23:03;;;;;;;5.78;1.80;;;;;;;10.93;75.29;100277.72;4952967;29;20138;-80
2022/09/17 00:26:06;;;;;;;8.10;1.73;;;;;;;10.91;75.60;100284.81;4941324;29;20053;-80
2022/09/17 00:29:11;;;;;;;6.15;1.27;;;;;;;10.88;75.44;100277.16;4952665;29;20326;-81
2022/09/17 00:32:15;;;;;;;8.43;1.67;;;;;;;11.07;74.31;100278.69;4953040;29;20353;-80
2022/09/17 00:35:19;;;;;;;7.70;1.30;;;;;;;11.11;74.63;100282.81;4952953;29;20522;-80
2022/09/17 00:38:23;;;;;;;9.02;1.30;;;;;;;11.18;74.38;100278.91;4952007;29;20062;-80
2022/09/17 00:41:31;;;;;;;7.88;1.77;;;;;;;11.02;75.38;100280.75;4960364;28;20045;-81
2022/09/17 00:44:41;;;;;;;6.20;1.40;;;;;;;11.24;74.15;100278.56;4971520;28;20049;-81
2022/09/17 00:47:55;;;;;;;4.90;1.17;;;;;;;11.17;74.19;100277.22;4972309;28;20446;-80
2022/09/17 00:51:00;;;;;;;7.03;1.13;;;;;;;11.14;73.75;100280.03;4972055;28;20161;-81
2022/09/17 00:54:07;;;;;;;7.68;1.73;;;;;;;11.06;73.08;100271.78;4971587;28;20054;-80
2022/09/17 00:57:11;;;;;;;9.57;1.73;;;;;;;11.21;72.14;100272.66;4973786;28;20081;-80
2022/09/17 01:00:16;;;;;;;3.92;1.00;;;;;;;11.36;71.28;100285.69;4974052;28;20110;-80
2022/09/17 01:03:20;;;;;;;7.95;1.23;;;;;;;11.37;71.57;100286.53;4975856;28;20174;-80
2022/09/17 01:06:52;;;;;;;6.50;1.20;;;;;;;11.17;71.68;100285.09;4975712;28;20120;-80
2022/09/17 01:10:18;;;;;;;4.65;1.10;;;;;;;11.44;71.58;100285.22;4975270;28;20126;-80
2022/09/17 01:13:56;;;;;;;6.28;1.25;;;;;;;11.66;70.54;100286.56;4975019;28;20105;-81
2022/09/17 01:17:27;;;;;;;10.77;1.60;;;;;;;11.35;71.40;100283.13;4974619;28;20128;-81
2022/09/17 01:20:35;;;;;;;10.45;1.30;;;;;;;11.15;71.83;100276.47;4974666;28;20572;-81
2022/09/17 01:23:57;;;;;;;7.50;1.63;;;;;;;11.12;71.85;100282.72;4974706;28;20109;-81
2022/09/17 01:27:12;;;;;;;5.55;1.30;;;;;;;11.20;72.09;100278.81;4974840;28;20049;-80
2022/09/17 01:30:30;;;;;;;7.43;1.85;;;;;;;11.31;71.41;100282.47;4974048;28;20121;-81
2022/09/17 01:33:46;;;;;;;6.28;1.30;;;;;;;11.02;72.29;100280.75;4974548;28;20042;-81
2022/09/17 01:37:09;;;;;;;7.40;1.42;;;;;;;11.18;71.76;100295.44;4973517;28;20053;-81
2022/09/17 01:40:27;;;;;;;6.82;1.20;;;;;;;11.29;72.04;100284.34;4973604;28;20049;-81
2022/09/17 01:43:35;;;;;;;7.35;1.42;;;;;;;11.15;72.96;100289.56;4974309;28;20041;-81
2022/09/17 01:47:00;;;;;;;8.02;2.00;;;;;;;11.11;73.09;100288.88;4974280;28;20070;-80
2022/09/17 01:50:12;;;;;;;5.43;1.05;;;;;;;11.09;73.68;100303.00;4974312;28;20050;-80
2022/09/17 01:53:22;;;;;;;6.55;1.33;;;;;;;10.85;74.84;100298.25;4973477;28;20109;-80
2022/09/17 01:56:31;;;;;;;8.15;1.10;;;;;;;11.00;74.21;100293.06;4974061;28;20053;-80
2022/09/17 01:59:45;;;;;;;8.18;1.05;;;;;;;10.98;74.01;100300.16;4972535;28;20100;-80
2022/09/17 02:03:13;;;;;;;5.78;1.63;;;;;;;11.05;74.28;100291.03;4972358;28;20073;-81
2022/09/17 02:06:24;;;;;;;7.28;1.33;;;;;;;10.85;75.01;100297.41;4972527;28;20050;-81
2022/09/17 02:10:01;;;;;;;11.00;1.33;;;;;;;10.81;75.03;100304.56;4972895;28;20105;-80
2022/09/17 02:13:31;;;;;;;6.57;0.98;;;;;;;10.99;74.70;100301.84;4960732;28;20046;-81
2022/09/17 02:16:38;;;;;;;8.50;1.38;;;;;;;10.96;74.99;100297.63;4973736;28;20481;-81
2022/09/17 02:19:44;;;;;;;11.18;3.50;;;;;;;11.04;75.02;100294.56;4961746;28;20409;-81
2022/09/17 02:23:00;;;;;;;8.50;1.83;;;;;;;10.78;75.21;100299.50;4950510;28;20122;-81
2022/09/17 02:26:19;;;;;;;7.85;1.20;;;;;;;10.89;75.05;100301.53;4974043;28;20050;-81
2022/09/17 02:29:33;;;;;;;9.90;1.55;;;;;;;10.83;75.50;100296.66;4973867;28;20049;-81
2022/09/17 02:32:37;;;;;;;5.80;1.10;;;;;;;10.86;75.60;100299.09;4973403;28;20086;-81
2022/09/17 02:35:43;;;;;;;7.78;1.10;;;;;;;11.12;75.35;100292.34;4973774;28;20050;-81
2022/09/17 02:38:46;;;;;;;5.07;1.10;;;;;;;11.26;74.55;100296.75;4973458;28;20046;-80
2022/09/17 02:42:05;;;;;;;10.13;1.70;;;;;;;10.94;75.02;100300.34;4973379;28;20178;-81
2022/09/17 02:45:21;;;;;;;8.38;1.48;;;;;;;10.92;75.58;100307.44;4973414;28;20130;-81
2022/09/17 02:49:00;;;;;;;13.15;1.92;;;;;;;10.97;75.92;100306.31;4973676;28;20046;-81
2022/09/17 02:52:41;;;;;;;6.93;1.50;;;;;;;10.58;77.62;100303.25;4973546;28;20572;-81
2022/09/17 02:56:19;;;;;;;7.07;1.73;;;;;;;10.77;76.66;100307.44;4973665;28;20057;-81
2022/09/17 02:59:36;;;;;;;6.40;1.05;;;;;;;11.03;76.34;100303.34;4973594;28;20093;-81
2022/09/17 03:02:42;;;;;;;6.35;1.42;;;;;;;10.85;76.23;100295.63;4973595;28;20038;-80
2022/09/17 03:05:47;;;;;;;9.65;1.25;;;;;;;11.09;75.34;100298.59;4977281;28;20042;-81
2022/09/17 03:08:51;;;;;;;6.55;1.63;;;;;;;11.04;75.38;100305.03;4977158;28;20125;-80
2022/09/17 03:11:55;;;;;;;8.68;1.40;;;;;;;11.00;75.67;100308.75;4976947;28;20505;-80
2022/09/17 03:14:58;;;;;;;;;;;;;;;10.85;76.05;100305.25;4977512;28;20050;-80
2022/09/17 03:18:02;;;;;;;6.95;1.17;;;;;;;10.83;77.03;100307.09;4976958;28;19921;-81
2022/09/17 03:21:05;;;;;;;8.27;1.33;;;;;;;10.76;78.00;100306.63;4976912;28;20097;-80
2022/09/17 03:24:10;;;;;;;7.15;1.95;;;;;;;10.51;80.24;100307.13;4977145;28;20093;-80
2022/09/17 03:27:13;;;;;;;10.18;1.35;;;;;;;10.24;81.96;100309.44;4977258;28;20058;-80
2022/09/17 03:30:18;;;;;;;7.63;1.48;;;;;;;10.34;82.30;100308.06;4976871;28;20074;-80
2022/09/17 03:33:23;;;;;;;7.60;1.40;;;;;;;10.41;82.44;100306.81;4976917;28;20054;-80
2022/09/17 03:36:26;;;;;;;5.65;1.00;;;;;;;10.82;82.10;100308.88;4976591;28;20117;-80
2022/09/17 03:39:29;;;;;;;7.55;1.35;;;;;;;10.94;82.12;100316.03;4976613;28;20049;-80
2022/09/17 03:42:33;;;;;;;6.75;1.02;;;;;;;10.67;82.48;100312.34;4976691;28;20045;-80
2022/09/17 03:45:37;;;;;;;5.53;1.30;;;;;;;11.02;81.43;100312.97;4976622;28;20046;-80
2022/09/17 03:48:40;;;;;;;12.05;1.63;;;;;;;11.19;81.31;100309.38;4976737;28;20052;-81
2022/09/17 03:51:44;;;;;;;;;;;;;;;11.34;80.55;100324.19;4977070;28;20050;-81
2022/09/17 03:54:48;;;;;;;7.38;1.17;;;;;;;11.02;80.24;100319.97;4976638;28;20281;-81
2022/09/17 03:57:52;;;;;;;4.35;1.67;;;;;;;10.61;81.79;100334.44;4976235;28;20050;-80
2022/09/17 04:00:56;;;;;;;6.47;1.35;;;;;;;10.91;81.94;100326.69;4976252;28;20593;-81
2022/09/17 04:04:00;;;;;;;6.13;1.15;;;;;;;11.04;81.27;100333.81;4976338;28;20513;-80
2022/09/17 04:07:05;;;;;;;6.43;1.17;;;;;;;11.09;81.08;100331.78;4976044;28;20544;-81
2022/09/17 04:10:09;;;;;;;6.72;1.52;;;;;;;11.23;80.97;100334.44;4976227;28;20045;-81
2022/09/17 04:13:14;;;;;;;5.78;1.00;;;;;;;10.96;80.96;100339.47;4976086;28;20493;-80
2022/09/17 04:16:18;;;;;;;8.18;1.60;;;;;;;10.79;80.79;100345.66;4975402;28;20102;-80
2022/09/17 04:19:22;;;;;;;6.13;1.40;;;;;;;11.03;81.49;100340.81;4975916;28;20061;-81
2022/09/17 04:22:26;;;;;;;7.80;1.63;;;;;;;10.80;81.62;100339.50;4975385;28;20101;-81
2022/09/17 04:25:30;;;;;;;5.43;2.00;;;;;;;11.08;82.22;100348.41;4975784;28;20042;-81
2022/09/17 04:28:36;;;;;;;8.77;1.70;;;;;;;11.14;81.98;100346.28;4975707;28;20045;-82
2022/09/17 04:31:39;;;;;;;7.70;1.77;;;;;;;11.27;81.07;100345.59;4975534;28;20066;-81
2022/09/17 04:34:42;;;;;;;8.23;2.00;;;;;;;11.36;81.05;100345.88;4975520;28;20069;-82
2022/09/17 04:37:55;;;;;;;7.30;1.98;;;;;;;11.30;79.78;100354.09;4975673;28;20058;-82
2022/09/17 04:40:59;;;;;;;8.68;2.50;;;;;;;11.12;81.28;100350.75;4975619;28;20528;-81
2022/09/17 04:44:03;;;;;;;7.75;2.60;;;;;;;11.29;82.68;100357.63;4975234;28;20402;-82
2022/09/17 04:47:06;;;;;;;8.18;2.05;;;;;;;11.41;81.17;100351.69;4975741;28;20049;-82
2022/09/17 04:50:11;;;;;;;11.68;2.75;;;;;;;11.45;80.97;100359.34;4975328;28;20049;-81
2022/09/17 04:53:15;;;;;;;12.85;3.65;;;;;;;11.37;81.29;100352.81;4975187;28;20093;-82
2022/09/17 04:56:19;;;;;;;13.77;2.83;;;;;;;11.39;81.61;100350.94;4975362;28;20068;-82
2022/09/17 04:59:22;;;;;;;11.73;2.90;;;;;;;11.32;81.29;100359.22;4975309;28;20058;-82
2022/09/17 05:02:26;;;;;;;9.23;1.92;;;;;;;11.39;81.32;100358.81;4975215;28;20096;-82
2022/09/17 05:05:29;;;;;;;;;;;;;;;11.45;81.45;100361.97;4975464;28;20070;-82
2022/09/17 05:08:32;;;;;;;12.18;3.03;;;;;;;11.60;80.84;100367.16;4974996;28;19920;-82
2022/09/17 05:11:36;;;;;;;11.05;2.40;;;;;;;11.59;80.64;100370.72;4975070;28;20497;-81
2022/09/17 05:14:41;;;;;;;7.80;2.30;;;;;;;11.61;80.67;100374.09;4974859;28;20624;-82
2022/09/17 05:17:44;;;;;;;;;;;;;;;11.54;81.16;100369.28;4629262;28;10000377;-81
2022/09/17 05:20:48;;;;;;;12.35;2.10;;;;;;;11.63;81.07;100379.22;4974500;28;20431;-82
2022/09/17 05:23:53;;;;;;;11.13;2.60;;;;;;;11.48;80.26;100375.72;4973995;28;20037;-82
2022/09/17 05:26:57;;;;;;;15.35;3.13;;;;;;;11.44;79.22;100376.00;4974687;28;20053;-82
2022/09/17 05:30:00;;;;;;;9.60;2.20;;;;;;;11.49;79.78;100385.28;4973311;28;20093;-81
2022/09/17 05:33:06;;;;;;;9.20;2.08;;;;;;;11.60;79.92;100382.88;4973453;28;20139;-81
2022/09/17 05:36:10;;;;;;;12.48;3.45;;;;;;;11.55;79.54;100389.31;4974409;28;20053;-82
2022/09/17 05:39:16;;;;;;;12.93;2.30;;;;;;;11.49;78.97;100387.06;4973727;28;20190;-81
2022/09/17 05:42:21;;;;;;;11.48;2.60;;;;;;;11.67;79.22;100393.81;4973654;28;20061;-82
2022/09/17 05:45:28;;;;;;;10.88;2.13;;;;;;;11.70;79.10;100396.25;4974364;28;20453;-82
2022/09/17 05:48:32;;;;;;;16.73;6.88;;;;;;;11.77;78.64;100384.50;4974488;28;20046;-81
2022/09/17 05:51:36;;;;;;;31.08;18.90;;;;;;;11.76;77.88;100398.53;4974123;28;20133;-82
2022/09/17 05:54:39;;;;;;;11.43;3.60;;;;;;;11.22;78.23;100398.19;4974435;28;20093;-82
2022/09/17 05:57:45;;;;;;;10.27;3.20;;;;;;;11.50;78.77;100401.84;4973998;28;20045;-81
2022/09/17 06:00:50;;;;;;;10.13;2.88;;;;;;;11.43;78.35;100403.97;4953529;28;20102;-81
2022/09/17 06:03:54;;;;;;;11.77;3.15;;;;;;;11.65;79.27;100406.19;4969104;28;20129;-81
2022/09/17 06:06:59;;;;;;;12.68;3.38;;;;;;;11.61;78.65;100407.28;4970495;28;20457;-82
2022/09/17 06:10:07;;;;;;;9.65;2.53;;;;;;;11.80;76.89;100405.25;4957449;28;20116;-81
2022/09/17 06:13:12;;;;;;;13.90;2.72;;;;;;;11.53;77.31;100414.75;4969356;28;20081;-81
2022/09/17 06:16:17;;;;;;;11.18;2.80;;;;;;;11.55;77.83;100424.22;4968972;28;20046;-81
2022/09/17 06:19:22;;;;;;;14.00;3.38;;;;;;;11.73;77.95;100424.91;4968265;28;20105;-81
2022/09/17 06:22:26;;;;;;;8.70;2.20;;;;;;;11.60;76.68;100422.16;4969036;28;20122;-81
2022/09/17 06:25:30;;;;;;;10.48;2.67;;;;;;;11.66;77.42;100426.19;4964978;28;20053;-81
2022/09/17 06:28:35;;;;;;;7.97;2.00;;;;;;;11.55;76.97;100428.59;4969586;28;20041;-81
2022/09/17 06:31:43;;;;;;;12.27;2.58;;;;;;;11.49;76.94;100436.81;4971992;28;20096;-81
2022/09/17 06:34:48;;;;;;;12.13;4.13;;;;;;;11.61;76.69;100431.72;4973942;28;20053;-81
2022/09/17 06:37:52;;;;;;;13.40;2.17;;;;;;;11.38;76.74;100425.16;4973605;28;20053;-81
2022/09/17 06:40:57;;;;;;;7.43;2.35;;;;;;;11.57;76.87;100431.97;4973928;28;20054;-81
2022/09/17 06:44:01;;;;;;;14.55;2.72;;;;;;;11.75;75.72;100433.53;4974095;28;20081;-81
2022/09/17 06:47:06;;;;;;;8.35;2.30;;;;;;;11.62;76.04;100437.78;4974003;28;20058;-81
2022/09/17 06:50:10;;;;;;;10.55;2.30;;;;;;;12.01;74.95;100441.66;4973498;28;20054;-81
2022/09/17 06:53:14;;;;;;;10.20;2.22;;;;;;;11.96;74.80;100435.81;4961273;28;20144;-81
2022/09/17 06:56:18;;;;;;;8.35;2.08;;;;;;;11.98;74.10;100431.34;4973191;28;20042;-81
2022/09/17 06:59:22;;;;;;;5.57;1.73;;;;;;;11.64;75.47;100441.16;4973794;28;20123;-81
2022/09/17 07:02:25;;;;;;;11.43;2.50;;;;;;;11.47;75.98;100433.44;4974034;28;20123;-81
2022/09/17 07:05:33;;;;;;;9.02;2.42;;;;;;;11.68;75.64;100434.81;4973948;28;20109;-81
2022/09/17 07:08:39;;;;;;;11.48;2.65;;;;;;;11.64;75.34;100439.38;4975136;28;20120;-81
2022/09/17 07:11:46;;;;;;;10.38;2.40;;;;;;;11.57;74.42;100443.28;4974231;28;20121;-80
2022/09/17 07:14:51;;;;;;;10.20;2.30;;;;;;;11.58;74.74;100442.38;4974934;28;20090;-80
2022/09/17 07:17:55;;;;;;;12.98;2.50;;;;;;;11.73;74.16;100445.00;4973836;28;20461;-80
2022/09/17 07:21:02;;;;;;;9.60;3.05;;;;;;;12.01;73.91;100444.28;4973864;28;20065;-81
2022/09/17 15:49:35;;;;;;;2.30;0.50;;;;;;;15.79;62.56;100410.88;4965572;28;20051;-75
2022/09/17 15:52:44;;;;;;;1.63;0.30;;;;;;;15.81;61.75;100413.38;4947912;28;20063;-76
2022/09/17 15:56:19;;;;;;;2.17;0.40;;;;;;;15.50;61.63;100415.66;4943528;28;20608;-76
2022/09/17 15:59:52;;;;;;;3.63;0.47;;;;;;;14.84;63.79;100417.03;4950271;28;20292;-74
2022/09/17 16:02:56;;;;;;;1.02;0.20;;;;;;;15.33;63.16;100426.59;4937202;28;20042;-75
2022/09/17 16:06:19;;;;;;;1.85;0.40;;;;;;;15.69;61.81;100419.56;4942349;28;20479;-76
2022/09/17 16:10:14;;;;;;;2.58;0.60;;;;;;;15.51;62.77;100427.06;4928346;28;20252;-74
2022/09/17 16:13:28;;;;;;;2.00;0.73;;;;;;;15.05;64.44;100431.25;4954286;28;20050;-75
2022/09/17 16:16:34;;;;;;;2.97;0.50;;;;;;;14.71;65.42;100422.31;4965937;28;20114;-75
2022/09/17 16:19:38;;;;;;;3.40;1.02;;;;;;;13.92;68.00;100437.38;4955735;28;20138;-75
2022/09/17 16:22:46;;;;;;;3.47;2.15;;;;;;;14.36;67.54;100446.66;4954188;28;20046;-75
2022/09/17 16:25:52;;;;;;;5.78;0.90;;;;;;;14.33;68.03;100448.66;4954748;28;20070;-74
2022/09/17 16:29:23;;;;;;;2.92;0.40;;;;;;;13.74;72.70;100483.28;4956551;28;20054;-76
2022/09/17 16:32:28;;;;;;;3.22;0.77;;;;;;;13.33;74.30;100514.88;4956325;28;20170;-76
2022/09/17 16:35:37;;;;;;;4.15;0.73;;;;;;;13.05;72.16;100500.84;4955875;29;20469;-75
2022/09/17 16:38:45;;;;;;;7.28;1.10;;;;;;;13.14;72.59;100475.78;4956397;28;20185;-75
2022/09/17 16:41:50;;;;;;;2.72;0.40;;;;;;;12.98;73.78;100457.53;4955966;28;20070;-76
2022/09/17 16:45:08;;;;;;;2.67;0.90;;;;;;;12.22;74.15;100463.09;4956095;29;20046;-76
2022/09/17 16:48:14;;;;;;;4.80;2.17;;;;;;;12.08;74.45;100467.38;4955557;29;20046;-75
2022/09/17 16:51:18;;;;;;;2.67;1.23;;;;;;;12.70;74.63;100469.78;4944401;29;20055;-74
2022/09/17 16:54:24;;;;;;;6.82;2.08;;;;;;;12.41;76.87;100481.19;4955793;29;20106;-74
2022/09/17 16:57:30;;;;;;;7.82;1.27;;;;;;;12.08;78.60;100482.28;4955499;28;20054;-74
2022/09/17 17:00:41;;;;;;;2.30;0.63;;;;;;;12.47;78.16;100478.19;4972760;28;20053;-74
2022/09/17 17:03:52;;;;;;;4.60;0.47;;;;;;;12.85;75.54;100478.44;4963320;28;20062;-75
2022/09/17 17:06:57;;;;;;;6.82;0.40;;;;;;;13.03;75.02;100471.22;4964233;28;20181;-74
2022/09/17 17:10:07;;;;;;;2.20;0.50;;;;;;;13.17;74.74;100479.03;4968374;28;20089;-74
2022/09/17 17:13:12;;;;;;;3.05;0.80;;;;;;;13.16;75.11;100480.00;4975539;28;20054;-74
2022/09/17 17:16:20;;;;;;;3.33;0.73;;;;;;;13.11;74.46;100495.19;4975493;28;20385;-74
2022/09/17 17:19:36;;;;;;;3.10;0.85;;;;;;;12.28;78.28;100494.19;4974875;28;20446;-74
2022/09/17 17:22:45;;;;;;;;;;;;;;;12.62;77.55;100495.63;4975440;28;20394;-74
2022/09/17 17:25:48;;;;;;;2.72;0.40;;;;;;;12.70;77.07;100490.75;4974790;28;20380;-74
2022/09/17 17:28:52;;;;;;;2.50;0.85;;;;;;;12.91;75.80;100492.97;4975501;28;20065;-74
2022/09/17 17:31:56;;;;;;;10.30;1.40;;;;;;;12.18;80.09;100488.66;4975260;28;20046;-74
2022/09/17 17:35:04;;;;;;;4.95;1.30;;;;;;;12.32;79.82;100491.31;4974517;28;20145;-74
2022/09/17 17:38:08;;;;;;;4.60;2.25;;;;;;;12.14;80.72;100492.41;4974851;28;20382;-74
2022/09/17 17:41:14;;;;;;;4.35;0.75;;;;;;;12.05;79.66;100483.28;4972930;28;20045;-74
2022/09/17 17:44:19;;;;;;;2.83;0.60;;;;;;;12.44;78.12;100484.47;4966624;28;20490;-74
2022/09/17 17:47:22;;;;;;;3.33;0.80;;;;;;;12.62;76.40;100482.50;4954979;29;20057;-75
2022/09/17 17:50:29;;;;;;;2.20;0.55;;;;;;;12.52;76.11;100478.78;4970585;28;20192;-75
2022/09/17 19:05:39;;;;;;;5.30;2.05;;;;;;;11.27;79.34;100574.13;4953470;28;20054;-74
2022/09/17 19:08:44;;;;;;;4.65;1.45;;;;;;;10.92;80.95;100581.25;4953845;28;20058;-74
2022/09/17 19:11:51;;;;;;;8.25;1.80;;;;;;;10.94;80.68;100582.88;4953928;29;20119;-74
2022/09/17 19:15:26;;;;;;;7.78;2.25;;;;;;;11.35;79.80;100587.63;4953900;28;20098;-74
2022/09/17 19:18:35;;;;;;;4.05;1.80;;;;;;;11.53;79.03;100584.97;4952222;28;20061;-74
2022/09/17 19:21:42;;;;;;;5.10;1.90;;;;;;;11.40;79.04;100577.78;4953681;28;20050;-74
2022/09/17 19:24:47;;;;;;;5.25;2.10;;;;;;;11.28;80.36;100581.06;4953928;28;20513;-74
2022/09/17 19:27:54;;;;;;;7.05;2.40;;;;;;;11.52;79.18;100583.25;4954051;28;20049;-74
2022/09/17 19:30:59;;;;;;;6.20;1.67;;;;;;;11.75;77.82;100580.22;4953780;28;20094;-74
2022/09/17 19:34:02;;;;;;;7.03;2.97;;;;;;;11.13;80.76;100585.34;4953583;28;20045;-74
2022/09/17 19:37:07;;;;;;;4.63;1.63;;;;;;;11.00;81.31;100593.94;4953963;28;20133;-74
2022/09/17 19:40:12;;;;;;;8.93;1.52;;;;;;;11.01;81.70;100587.75;4955872;28;20050;-74
2022/09/17 19:43:17;;;;;;;5.72;1.40;;;;;;;11.20;81.02;100583.25;4973022;28;20470;-74
2022/09/17 19:46:24;;;;;;;6.15;1.50;;;;;;;11.59;79.31;100587.25;4973567;28;20050;-75
2022/09/17 19:49:28;;;;;;;3.88;1.25;;;;;;;11.40;79.83;100590.88;4976224;28;20053;-76
2022/09/17 19:52:34;;;;;;;8.50;2.80;;;;;;;11.52;79.42;100596.34;4978721;28;20042;-76
2022/09/17 19:55:39;;;;;;;7.75;1.48;;;;;;;11.21;81.41;100587.56;4976430;28;20128;-76
2022/09/17 19:58:49;;;;;;;5.28;1.48;;;;;;;11.30;81.46;100594.06;4976199;28;20045;-75
2022/09/17 20:01:53;;;;;;;4.97;1.10;;;;;;;11.61;79.83;100594.09;4976530;28;20101;-75
2022/09/17 20:05:04;;;;;;;7.18;1.73;;;;;;;11.70;79.21;100589.25;4957520;29;20403;-75
2022/09/17 20:08:08;;;;;;;5.55;1.35;;;;;;;11.77;79.13;100599.31;4957245;29;20050;-75
2022/09/17 20:11:13;;;;;;;13.93;1.60;;;;;;;11.92;78.42;100602.03;4957152;29;20046;-75
2022/09/17 20:14:17;;;;;;;5.32;1.80;;;;;;;11.73;79.90;100597.78;4957095;29;20042;-75
2022/09/17 20:17:21;;;;;;;4.88;1.80;;;;;;;11.32;81.70;100597.44;4958877;28;20110;-75
2022/09/17 20:20:27;;;;;;;8.85;2.00;;;;;;;10.84;81.93;100592.13;4956387;29;20564;-75
2022/09/17 20:23:36;;;;;;;8.50;3.33;;;;;;;11.07;82.32;100598.78;4944496;29;20078;-75
2022/09/17 20:26:41;;;;;;;6.30;1.48;;;;;;;11.07;81.35;100590.91;4944704;29;20110;-75
2022/09/17 20:29:50;;;;;;;6.78;1.63;;;;;;;10.72;80.72;100584.94;4956543;29;20078;-75
2022/09/17 20:32:54;;;;;;;17.15;9.63;;;;;;;10.90;80.64;100591.78;4956236;29;20102;-75
2022/09/17 20:36:01;;;;;;;15.82;4.47;;;;;;;10.82;80.49;100580.91;4955187;29;20070;-75
2022/09/17 20:39:09;;;;;;;6.68;1.70;;;;;;;10.78;80.22;100578.50;4956256;29;20127;-75
2022/09/17 20:42:14;;;;;;;10.50;3.03;;;;;;;10.65;80.97;100573.91;4956166;29;20041;-75
2022/09/17 20:45:17;;;;;;;10.32;4.78;;;;;;;10.90;80.84;100575.25;4956205;29;20050;-75
2022/09/17 20:48:20;;;;;;;;;;;;;;;10.90;80.94;100576.09;4944533;29;20058;-75
2022/09/17 20:51:26;;;;;;;7.82;2.22;;;;;;;10.89;81.04;100579.66;4956077;29;19922;-75
2022/09/17 20:54:30;;;;;;;7.63;1.40;;;;;;;10.83;79.63;100572.13;4956136;29;20050;-75
2022/09/17 20:57:33;;;;;;;;;;;;;;;10.71;80.56;100575.38;4956082;28;20106;-75
2022/09/17 21:00:39;;;;;;;8.60;1.77;;;;;;;10.64;80.22;100574.84;4955986;29;19992;-75
2022/09/17 21:03:44;;;;;;;9.20;1.50;;;;;;;10.70;80.57;100584.16;4965154;28;20057;-75
2022/09/17 21:06:51;;;;;;;6.45;1.73;;;;;;;10.90;80.09;100576.09;4975429;28;20154;-75
2022/09/17 21:09:55;;;;;;;9.13;1.95;;;;;;;10.80;80.06;100584.50;4975301;28;20053;-75
2022/09/17 21:12:58;;;;;;;7.38;1.45;;;;;;;10.72;80.95;100579.69;4974942;28;20045;-75
2022/09/17 21:16:02;;;;;;;7.95;1.63;;;;;;;10.90;79.78;100581.31;4974778;28;20152;-75
2022/09/17 21:19:07;;;;;;;6.82;1.00;;;;;;;11.01;80.10;100575.53;4974919;28;20085;-75
2022/09/17 21:22:10;;;;;;;8.55;2.70;;;;;;;10.85;80.90;100585.97;4974344;28;20045;-75
2022/09/17 21:25:14;;;;;;;11.48;1.52;;;;;;;10.93;81.12;100586.41;4974716;28;20049;-75
2022/09/17 21:28:19;;;;;;;;;;;;;;;11.01;80.31;100587.75;4975661;28;20057;-75
2022/09/17 21:31:24;;;;;;;;;;;;;;;11.17;80.26;100588.66;4974983;28;19921;-75
2022/09/17 21:34:28;;;;;;;;;;;;;;;10.89;79.67;100589.28;4975061;28;19975;-75
2022/09/17 21:37:34;;;;;;;;;;;;;;;11.05;79.69;100589.31;4974940;28;19925;-75
2022/09/17 21:40:38;;;;;;;;;;;;;;;10.90;80.21;100590.94;4974853;28;20021;-75
2022/09/17 21:43:42;;;;;;;;;;;;;;;11.14;79.61;100589.66;4974827;28;20368;-75
2022/09/17 21:46:45;;;;;;;;;;;;;;;11.06;78.74;100585.75;4974280;28;20082;-75
2022/09/17 21:49:49;;;;;;;;;;;;;;;11.22;78.97;100597.09;4974794;28;19920;-75
2022/09/17 21:52:52;;;;;;;;;;;;;;;10.91;80.34;100588.28;4974990;28;19921;-75
2022/09/17 21:55:59;;;;;;;;;;;;;;;10.99;79.57;100595.69;4974987;28;20416;-75
2022/09/17 21:59:04;;;;;;;;;;;;;;;10.96;80.27;100601.09;4974582;28;19920;-75
2022/09/17 22:02:09;;;;;;;;;;;;;;;11.12;80.58;100599.34;4974511;28;19968;-75
2022/09/17 22:05:14;;;;;;;;;;;;;;;11.20;81.46;100592.84;4962409;28;20041;-75
2022/09/17 22:08:16;;;;;;;;;;;;;;;11.23;80.44;100596.19;4974342;28;19925;-75
2022/09/17 22:11:28;;;;;;;;;;;;;;;11.10;81.46;100598.59;4974490;28;19965;-75
2022/09/17 22:14:31;;;;;;;;;;;;;;;11.24;78.96;100597.88;4974397;28;19921;-75
2022/09/17 22:17:35;;;;;;;;;;;;;;;11.18;80.48;100601.66;4974486;28;19982;-75
2022/09/17 22:20:39;;;;;;;;;;;;;;;11.20;80.71;100598.09;4962676;28;20324;-75
2022/09/17 22:23:42;;;;;;;;;;;;;;;11.21;81.68;100595.41;4974692;28;19920;-75
2022/09/17 22:26:47;;;;;;;;;;;;;;;11.20;81.48;100598.97;4974363;28;20295;-75
2022/09/17 22:29:50;;;;;;;;;;;;;;;11.53;80.70;100590.19;4974141;28;19937;-75
2022/09/17 22:32:54;;;;;;;;;;;;;;;11.37;80.59;100604.13;4974002;28;19920;-75
2022/09/17 22:36:05;;;;;;;;;;;;;;;11.25;79.98;100594.31;4962543;28;20058;-75
2022/09/17 22:39:09;;;;;;;;;;;;;;;11.23;79.91;100598.81;4974150;28;19925;-75
2022/09/17 22:42:13;;;;;;;;;;;;;;;11.25;79.18;100602.16;4973422;28;20388;-75
2022/09/17 22:45:16;;;;;;;;;;;;;;;11.21;78.81;100607.66;4973963;28;19921;-75
2022/09/17 22:48:19;;;;;;;;;;;;;;;10.99;79.49;100592.25;4974380;28;20349;-75
2022/09/17 22:51:23;;;;;;;;;;;;;;;11.31;78.17;100601.00;4974232;28;19936;-75
2022/09/17 22:54:28;;;;;;;;;;;;;;;11.07;79.00;100604.00;4973886;28;20003;-75
2022/09/17 22:57:33;;;;;;;;;;;;;;;11.05;79.92;100605.00;4974186;28;20024;-75
2022/09/17 23:00:41;;;;;;;;;;;;;;;10.97;79.72;100607.16;4974090;28;19921;-75
2022/09/17 23:03:46;;;;;;;;;;;;;;;11.14;78.88;100594.06;4973632;28;19921;-75
2022/09/17 23:06:50;;;;;;;;;;;;;;;11.39;78.78;100602.28;4973707;28;19928;-75
2022/09/17 23:09:54;;;;;;;;;;;;;;;11.14;79.12;100607.13;4974156;28;19960;-75
2022/09/17 23:12:57;;;;;;;;;;;;;;;11.13;78.75;100600.19;4973725;28;20310;-75
2022/09/17 23:16:00;;;;;;;;;;;;;;;11.15;79.32;100598.34;4973786;28;20396;-75
2022/09/17 23:19:04;;;;;;;;;;;;;;;11.12;80.21;100593.28;4973604;28;19921;-75
2022/09/17 23:22:07;;;;;;;;;;;;;;;10.94;80.24;100595.97;4977291;28;20376;-75
2022/09/17 23:25:10;;;;;;;;;;;;;;;10.97;80.49;100587.09;4977468;28;19921;-75
2022/09/17 23:28:13;;;;;;;;;;;;;;;10.82;81.03;100591.38;4977343;28;19961;-75
2022/09/17 23:31:19;;;;;;;;;;;;;;;10.75;80.72;100589.97;4977661;28;19953;-75
2022/09/17 23:34:22;;;;;;;;;;;;;;;10.80;81.04;100585.34;4977348;28;20064;-75
2022/09/17 23:37:26;;;;;;;;;;;;;;;10.94;80.11;100580.25;4977261;28;19925;-75
2022/09/17 23:40:29;;;;;;;;;;;;;;;11.04;80.23;100587.59;4976915;28;19992;-75
2022/09/17 23:43:33;;;;;;;;;;;;;;;11.10;80.07;100590.75;4977121;28;19921;-75
2022/09/17 23:46:36;;;;;;;;;;;;;;;10.94;80.23;100585.50;4977164;28;20292;-75
2022/09/17 23:49:39;;;;;;;;;;;;;;;10.96;80.09;100580.16;4954353;28;19920;-75
2022/09/17 23:52:43;;;;;;;;;;;;;;;10.90;80.03;100578.72;4976926;28;19921;-75
2022/09/17 23:55:49;;;;;;;;;;;;;;;11.00;79.13;100596.53;4977042;28;19925;-75
2022/09/17 23:58:54;;;;;;;;;;;;;;;11.01;79.29;100596.47;4976809;28;19921;-75
